sensor_id;sensor_type;location;lat;lon;timestamp;P1;durP1;ratioP1;P2;durP2;ratioP2
62990;SDS011;49084;48.204;16.202;2023-06-14T00:00:20;7.47;;;3.47;;
62990;SDS011;49084;48.204;16.202;2023-06-14T00:02:46;3.28;;;2.90;;
62990;SDS011;49084;48.204;16.202;2023-06-14T00:05:11;8.52;;;3.42;;
62990;SDS011;49084;48.204;16.202;2023-06-14T00:07:38;3.92;;;3.42;;
62990;SDS011;49084;48.204;16.202;2023-06-14T00:10:09;4.93;;;3.60;;
62990;SDS011;49084;48.204;16.202;2023-06-14T00:12:36;5.80;;;3.72;;
62990;SDS011;49084;48.204;16.202;2023-06-14T00:15:03;6.20;;;3.53;;
62990;SDS011;49084;48.204;16.202;2023-06-14T00:17:29;8.02;;;3.90;;
62990;SDS011;49084;48.204;16.202;2023-06-14T00:19:56;11.50;;;3.83;;
62990;SDS011;49084;48.204;16.202;2023-06-14T00:22:22;5.90;;;3.33;;
62990;SDS011;49084;48.204;16.202;2023-06-14T00:24:49;8.18;;;3.38;;
62990;SDS011;49084;48.204;16.202;2023-06-14T00:27:15;6.45;;;3.97;;
62990;SDS011;49084;48.204;16.202;2023-06-14T00:29:41;8.40;;;3.60;;
62990;SDS011;49084;48.204;16.202;2023-06-14T00:32:07;5.32;;;3.28;;
62990;SDS011;49084;48.204;16.202;2023-06-14T00:34:33;7.47;;;3.63;;
62990;SDS011;49084;48.204;16.202;2023-06-14T00:36:59;5.60;;;3.63;;
62990;SDS011;49084;48.204;16.202;2023-06-14T00:39:25;7.22;;;3.83;;
62990;SDS011;49084;48.204;16.202;2023-06-14T00:41:50;5.00;;;3.70;;
62990;SDS011;49084;48.204;16.202;2023-06-14T00:44:16;7.63;;;3.25;;
62990;SDS011;49084;48.204;16.202;2023-06-14T00:46:42;4.22;;;3.40;;
62990;SDS011;49084;48.204;16.202;2023-06-14T00:49:10;10.80;;;4.18;;
62990;SDS011;49084;48.204;16.202;2023-06-14T00:51:37;6.45;;;3.40;;
62990;SDS011;49084;48.204;16.202;2023-06-14T00:54:04;3.85;;;3.42;;
62990;SDS011;49084;48.204;16.202;2023-06-14T00:56:30;7.25;;;3.80;;
62990;SDS011;49084;48.204;16.202;2023-06-14T00:58:55;5.38;;;3.70;;
62990;SDS011;49084;48.204;16.202;2023-06-14T01:01:21;4.13;;;3.35;;
62990;SDS011;49084;48.204;16.202;2023-06-14T01:03:47;4.82;;;3.35;;
62990;SDS011;49084;48.204;16.202;2023-06-14T01:06:15;6.30;;;3.83;;
62990;SDS011;49084;48.204;16.202;2023-06-14T01:08:56;7.15;;;4.20;;
62990;SDS011;49084;48.204;16.202;2023-06-14T01:11:27;5.78;;;3.65;;
62990;SDS011;49084;48.204;16.202;2023-06-14T01:13:57;4.60;;;3.30;;
62990;SDS011;49084;48.204;16.202;2023-06-14T01:16:27;6.25;;;3.78;;
62990;SDS011;49084;48.204;16.202;2023-06-14T01:18:54;4.40;;;3.13;;
62990;SDS011;49084;48.204;16.202;2023-06-14T01:21:25;6.25;;;3.38;;
62990;SDS011;49084;48.204;16.202;2023-06-14T01:23:53;5.10;;;3.35;;
62990;SDS011;49084;48.204;16.202;2023-06-14T01:26:20;3.78;;;3.33;;
62990;SDS011;49084;48.204;16.202;2023-06-14T01:28:46;5.15;;;3.47;;
62990;SDS011;49084;48.204;16.202;2023-06-14T01:31:16;3.58;;;3.20;;
62990;SDS011;49084;48.204;16.202;2023-06-14T01:33:44;6.82;;;3.40;;
62990;SDS011;49084;48.204;16.202;2023-06-14T01:36:11;5.43;;;3.70;;
62990;SDS011;49084;48.204;16.202;2023-06-14T01:38:38;4.32;;;3.72;;
62990;SDS011;49084;48.204;16.202;2023-06-14T01:41:05;4.82;;;4.05;;
62990;SDS011;49084;48.204;16.202;2023-06-14T01:43:31;7.93;;;3.70;;
62990;SDS011;49084;48.204;16.202;2023-06-14T01:45:59;6.37;;;3.70;;
62990;SDS011;49084;48.204;16.202;2023-06-14T01:48:26;4.28;;;3.50;;
62990;SDS011;49084;48.204;16.202;2023-06-14T01:50:52;4.97;;;3.33;;
62990;SDS011;49084;48.204;16.202;2023-06-14T01:53:18;5.72;;;3.90;;
62990;SDS011;49084;48.204;16.202;2023-06-14T01:55:43;7.93;;;4.07;;
62990;SDS011;49084;48.204;16.202;2023-06-14T01:58:09;5.00;;;3.78;;
62990;SDS011;49084;48.204;16.202;2023-06-14T02:00:36;5.10;;;3.85;;
62990;SDS011;49084;48.204;16.202;2023-06-14T02:03:02;4.40;;;3.55;;
62990;SDS011;49084;48.204;16.202;2023-06-14T02:05:30;4.97;;;3.30;;
62990;SDS011;49084;48.204;16.202;2023-06-14T02:07:56;7.95;;;3.67;;
62990;SDS011;49084;48.204;16.202;2023-06-14T02:10:21;6.45;;;3.67;;
62990;SDS011;49084;48.204;16.202;2023-06-14T02:12:47;4.20;;;3.75;;
62990;SDS011;49084;48.204;16.202;2023-06-14T02:15:13;5.85;;;3.17;;
62990;SDS011;49084;48.204;16.202;2023-06-14T02:17:42;5.90;;;3.83;;
62990;SDS011;49084;48.204;16.202;2023-06-14T02:20:08;5.13;;;3.65;;
62990;SDS011;49084;48.204;16.202;2023-06-14T02:22:34;4.93;;;3.45;;
62990;SDS011;49084;48.204;16.202;2023-06-14T02:25:00;5.78;;;4.35;;
62990;SDS011;49084;48.204;16.202;2023-06-14T02:27:26;4.32;;;3.50;;
62990;SDS011;49084;48.204;16.202;2023-06-14T02:29:51;3.20;;;2.95;;
62990;SDS011;49084;48.204;16.202;2023-06-14T02:32:17;6.22;;;3.83;;
62990;SDS011;49084;48.204;16.202;2023-06-14T02:34:42;4.07;;;3.40;;
62990;SDS011;49084;48.204;16.202;2023-06-14T02:37:08;5.68;;;3.90;;
62990;SDS011;49084;48.204;16.202;2023-06-14T02:39:34;9.25;;;4.30;;
62990;SDS011;49084;48.204;16.202;2023-06-14T02:42:00;4.65;;;3.58;;
62990;SDS011;49084;48.204;16.202;2023-06-14T02:44:26;6.57;;;3.63;;
62990;SDS011;49084;48.204;16.202;2023-06-14T02:46:55;5.75;;;3.67;;
62990;SDS011;49084;48.204;16.202;2023-06-14T02:49:21;5.68;;;3.70;;
62990;SDS011;49084;48.204;16.202;2023-06-14T02:51:47;6.47;;;3.70;;
62990;SDS011;49084;48.204;16.202;2023-06-14T02:54:13;8.63;;;3.70;;
62990;SDS011;49084;48.204;16.202;2023-06-14T02:56:38;5.30;;;3.67;;
62990;SDS011;49084;48.204;16.202;2023-06-14T02:59:04;6.00;;;3.83;;
62990;SDS011;49084;48.204;16.202;2023-06-14T03:01:30;8.35;;;4.50;;
62990;SDS011;49084;48.204;16.202;2023-06-14T03:04:06;4.50;;;3.67;;
62990;SDS011;49084;48.204;16.202;2023-06-14T03:06:32;10.95;;;4.03;;
62990;SDS011;49084;48.204;16.202;2023-06-14T03:08:58;5.18;;;3.80;;
62990;SDS011;49084;48.204;16.202;2023-06-14T03:11:26;5.63;;;4.10;;
62990;SDS011;49084;48.204;16.202;2023-06-14T03:13:52;9.48;;;4.03;;
62990;SDS011;49084;48.204;16.202;2023-06-14T03:16:18;7.20;;;3.90;;
62990;SDS011;49084;48.204;16.202;2023-06-14T03:18:46;6.72;;;4.20;;
62990;SDS011;49084;48.204;16.202;2023-06-14T03:21:13;4.38;;;3.30;;
62990;SDS011;49084;48.204;16.202;2023-06-14T03:23:40;6.03;;;4.00;;
62990;SDS011;49084;48.204;16.202;2023-06-14T03:26:07;8.48;;;4.30;;
62990;SDS011;49084;48.204;16.202;2023-06-14T03:28:33;9.18;;;4.22;;
62990;SDS011;49084;48.204;16.202;2023-06-14T03:30:58;6.43;;;3.40;;
62990;SDS011;49084;48.204;16.202;2023-06-14T03:33:24;8.23;;;3.97;;
62990;SDS011;49084;48.204;16.202;2023-06-14T03:35:50;5.95;;;4.05;;
62990;SDS011;49084;48.204;16.202;2023-06-14T03:38:16;6.28;;;4.03;;
62990;SDS011;49084;48.204;16.202;2023-06-14T03:40:42;6.45;;;4.13;;
62990;SDS011;49084;48.204;16.202;2023-06-14T03:43:09;5.65;;;3.85;;
62990;SDS011;49084;48.204;16.202;2023-06-14T03:45:35;11.30;;;4.30;;
62990;SDS011;49084;48.204;16.202;2023-06-14T03:48:00;7.22;;;4.30;;
62990;SDS011;49084;48.204;16.202;2023-06-14T03:50:27;7.95;;;5.03;;
62990;SDS011;49084;48.204;16.202;2023-06-14T03:52:53;8.07;;;4.32;;
62990;SDS011;49084;48.204;16.202;2023-06-14T03:55:19;4.90;;;3.90;;
62990;SDS011;49084;48.204;16.202;2023-06-14T03:57:45;6.07;;;3.90;;
62990;SDS011;49084;48.204;16.202;2023-06-14T04:00:10;7.78;;;4.55;;
62990;SDS011;49084;48.204;16.202;2023-06-14T04:02:37;12.10;;;4.28;;
62990;SDS011;49084;48.204;16.202;2023-06-14T04:05:03;6.43;;;4.35;;
62990;SDS011;49084;48.204;16.202;2023-06-14T04:07:33;6.85;;;4.22;;
62990;SDS011;49084;48.204;16.202;2023-06-14T04:10:04;9.68;;;4.05;;
62990;SDS011;49084;48.204;16.202;2023-06-14T04:12:31;6.00;;;4.15;;
62990;SDS011;49084;48.204;16.202;2023-06-14T04:14:57;7.75;;;3.88;;
62990;SDS011;49084;48.204;16.202;2023-06-14T04:17:22;8.45;;;4.38;;
62990;SDS011;49084;48.204;16.202;2023-06-14T04:19:48;6.60;;;4.82;;
62990;SDS011;49084;48.204;16.202;2023-06-14T04:22:14;8.98;;;4.70;;
62990;SDS011;49084;48.204;16.202;2023-06-14T04:24:39;9.52;;;5.18;;
62990;SDS011;49084;48.204;16.202;2023-06-14T04:27:07;10.63;;;4.65;;
62990;SDS011;49084;48.204;16.202;2023-06-14T04:29:33;8.38;;;4.53;;
62990;SDS011;49084;48.204;16.202;2023-06-14T04:31:58;6.95;;;4.20;;
62990;SDS011;49084;48.204;16.202;2023-06-14T04:34:27;7.80;;;3.97;;
62990;SDS011;49084;48.204;16.202;2023-06-14T04:36:59;7.13;;;4.10;;
62990;SDS011;49084;48.204;16.202;2023-06-14T04:39:26;6.47;;;4.22;;
62990;SDS011;49084;48.204;16.202;2023-06-14T04:41:52;5.78;;;3.80;;
62990;SDS011;49084;48.204;16.202;2023-06-14T04:46:56;9.23;;;4.22;;
62990;SDS011;49084;48.204;16.202;2023-06-14T04:49:23;6.47;;;3.65;;
62990;SDS011;49084;48.204;16.202;2023-06-14T04:51:49;4.35;;;3.53;;
62990;SDS011;49084;48.204;16.202;2023-06-14T04:54:22;8.35;;;4.10;;
62990;SDS011;49084;48.204;16.202;2023-06-14T04:56:50;6.60;;;3.53;;
62990;SDS011;49084;48.204;16.202;2023-06-14T04:59:16;5.47;;;4.13;;
62990;SDS011;49084;48.204;16.202;2023-06-14T05:01:42;6.28;;;4.03;;
62990;SDS011;49084;48.204;16.202;2023-06-14T05:04:13;6.97;;;3.63;;
62990;SDS011;49084;48.204;16.202;2023-06-14T05:06:40;5.95;;;4.00;;
62990;SDS011;49084;48.204;16.202;2023-06-14T05:09:15;5.85;;;3.90;;
62990;SDS011;49084;48.204;16.202;2023-06-14T05:11:42;7.35;;;4.00;;
62990;SDS011;49084;48.204;16.202;2023-06-14T05:14:09;4.47;;;3.38;;
62990;SDS011;49084;48.204;16.202;2023-06-14T05:16:35;5.10;;;3.67;;
62990;SDS011;49084;48.204;16.202;2023-06-14T05:19:02;11.35;;;5.10;;
62990;SDS011;49084;48.204;16.202;2023-06-14T05:21:29;5.75;;;3.33;;
62990;SDS011;49084;48.204;16.202;2023-06-14T05:23:55;5.15;;;3.60;;
62990;SDS011;49084;48.204;16.202;2023-06-14T05:26:21;7.45;;;3.30;;
62990;SDS011;49084;48.204;16.202;2023-06-14T05:28:48;7.53;;;4.63;;
62990;SDS011;49084;48.204;16.202;2023-06-14T05:31:15;4.80;;;3.42;;
62990;SDS011;49084;48.204;16.202;2023-06-14T05:33:40;5.57;;;3.75;;
62990;SDS011;49084;48.204;16.202;2023-06-14T05:36:06;8.85;;;3.80;;
62990;SDS011;49084;48.204;16.202;2023-06-14T05:38:32;6.45;;;3.42;;
62990;SDS011;49084;48.204;16.202;2023-06-14T05:40:57;5.03;;;3.45;;
62990;SDS011;49084;48.204;16.202;2023-06-14T05:43:24;7.80;;;3.05;;
62990;SDS011;49084;48.204;16.202;2023-06-14T05:45:50;7.15;;;2.70;;
62990;SDS011;49084;48.204;16.202;2023-06-14T05:48:15;4.50;;;2.85;;
62990;SDS011;49084;48.204;16.202;2023-06-14T05:50:41;4.43;;;2.60;;
62990;SDS011;49084;48.204;16.202;2023-06-14T05:53:07;6.07;;;3.17;;
62990;SDS011;49084;48.204;16.202;2023-06-14T05:55:32;3.13;;;2.80;;
62990;SDS011;49084;48.204;16.202;2023-06-14T05:57:58;4.38;;;2.72;;
62990;SDS011;49084;48.204;16.202;2023-06-14T06:00:24;3.40;;;2.60;;
62990;SDS011;49084;48.204;16.202;2023-06-14T06:02:50;5.18;;;2.78;;
62990;SDS011;49084;48.204;16.202;2023-06-14T06:05:15;4.63;;;2.60;;
62990;SDS011;49084;48.204;16.202;2023-06-14T06:07:41;3.88;;;2.53;;
62990;SDS011;49084;48.204;16.202;2023-06-14T06:10:09;6.05;;;2.85;;
62990;SDS011;49084;48.204;16.202;2023-06-14T06:12:35;4.95;;;3.10;;
62990;SDS011;49084;48.204;16.202;2023-06-14T06:15:00;3.70;;;2.90;;
62990;SDS011;49084;48.204;16.202;2023-06-14T06:17:26;4.97;;;2.80;;
62990;SDS011;49084;48.204;16.202;2023-06-14T06:19:52;4.32;;;2.50;;
62990;SDS011;49084;48.204;16.202;2023-06-14T06:22:17;7.50;;;2.80;;
62990;SDS011;49084;48.204;16.202;2023-06-14T06:24:43;6.63;;;2.53;;
62990;SDS011;49084;48.204;16.202;2023-06-14T06:27:09;9.10;;;3.25;;
62990;SDS011;49084;48.204;16.202;2023-06-14T06:29:35;6.75;;;3.00;;
62990;SDS011;49084;48.204;16.202;2023-06-14T06:32:01;3.15;;;2.40;;
62990;SDS011;49084;48.204;16.202;2023-06-14T06:34:27;3.97;;;2.75;;
62990;SDS011;49084;48.204;16.202;2023-06-14T06:36:53;5.38;;;2.80;;
62990;SDS011;49084;48.204;16.202;2023-06-14T06:39:19;6.35;;;2.50;;
62990;SDS011;49084;48.204;16.202;2023-06-14T06:41:44;6.60;;;2.50;;
62990;SDS011;49084;48.204;16.202;2023-06-14T06:44:10;4.93;;;2.50;;
62990;SDS011;49084;48.204;16.202;2023-06-14T06:46:36;4.38;;;2.35;;
62990;SDS011;49084;48.204;16.202;2023-06-14T06:49:06;5.63;;;2.65;;
62990;SDS011;49084;48.204;16.202;2023-06-14T06:51:32;4.47;;;2.20;;
62990;SDS011;49084;48.204;16.202;2023-06-14T06:53:58;5.32;;;2.65;;
62990;SDS011;49084;48.204;16.202;2023-06-14T06:56:23;5.35;;;2.45;;
62990;SDS011;49084;48.204;16.202;2023-06-14T06:58:49;4.28;;;2.55;;
62990;SDS011;49084;48.204;16.202;2023-06-14T07:01:15;5.78;;;2.22;;
62990;SDS011;49084;48.204;16.202;2023-06-14T07:03:42;3.80;;;2.67;;
62990;SDS011;49084;48.204;16.202;2023-06-14T07:06:08;4.78;;;2.40;;
62990;SDS011;49084;48.204;16.202;2023-06-14T07:08:33;2.97;;;2.22;;
62990;SDS011;49084;48.204;16.202;2023-06-14T07:10:59;12.65;;;3.47;;
62990;SDS011;49084;48.204;16.202;2023-06-14T07:13:25;4.82;;;2.58;;
62990;SDS011;49084;48.204;16.202;2023-06-14T07:15:53;3.28;;;2.28;;
62990;SDS011;49084;48.204;16.202;2023-06-14T07:18:20;6.13;;;2.10;;
62990;SDS011;49084;48.204;16.202;2023-06-14T07:20:46;4.32;;;2.88;;
62990;SDS011;49084;48.204;16.202;2023-06-14T07:23:12;6.82;;;2.90;;
62990;SDS011;49084;48.204;16.202;2023-06-14T07:25:38;4.75;;;2.15;;
62990;SDS011;49084;48.204;16.202;2023-06-14T07:28:04;4.70;;;2.30;;
62990;SDS011;49084;48.204;16.202;2023-06-14T07:30:32;6.07;;;2.85;;
62990;SDS011;49084;48.204;16.202;2023-06-14T07:32:58;3.53;;;2.45;;
62990;SDS011;49084;48.204;16.202;2023-06-14T07:35:23;3.42;;;2.25;;
62990;SDS011;49084;48.204;16.202;2023-06-14T07:37:49;10.52;;;2.50;;
62990;SDS011;49084;48.204;16.202;2023-06-14T07:40:15;3.83;;;2.30;;
62990;SDS011;49084;48.204;16.202;2023-06-14T07:42:40;6.38;;;2.95;;
62990;SDS011;49084;48.204;16.202;2023-06-14T07:45:07;5.32;;;2.33;;
62990;SDS011;49084;48.204;16.202;2023-06-14T07:47:33;6.22;;;2.65;;
62990;SDS011;49084;48.204;16.202;2023-06-14T07:49:59;7.50;;;2.45;;
62990;SDS011;49084;48.204;16.202;2023-06-14T07:52:24;6.65;;;2.65;;
62990;SDS011;49084;48.204;16.202;2023-06-14T07:54:50;9.27;;;3.22;;
62990;SDS011;49084;48.204;16.202;2023-06-14T07:57:16;6.40;;;2.65;;
62990;SDS011;49084;48.204;16.202;2023-06-14T07:59:42;3.90;;;2.20;;
62990;SDS011;49084;48.204;16.202;2023-06-14T08:02:07;3.80;;;2.00;;
62990;SDS011;49084;48.204;16.202;2023-06-14T08:04:33;8.32;;;2.40;;
62990;SDS011;49084;48.204;16.202;2023-06-14T08:06:59;9.00;;;2.30;;
62990;SDS011;49084;48.204;16.202;2023-06-14T08:09:25;6.80;;;2.20;;
62990;SDS011;49084;48.204;16.202;2023-06-14T08:11:52;7.07;;;2.65;;
62990;SDS011;49084;48.204;16.202;2023-06-14T08:14:18;3.08;;;1.88;;
62990;SDS011;49084;48.204;16.202;2023-06-14T08:16:44;3.15;;;2.20;;
62990;SDS011;49084;48.204;16.202;2023-06-14T08:19:09;4.25;;;2.42;;
62990;SDS011;49084;48.204;16.202;2023-06-14T08:21:35;3.35;;;2.53;;
62990;SDS011;49084;48.204;16.202;2023-06-14T08:24:01;6.25;;;2.50;;
62990;SDS011;49084;48.204;16.202;2023-06-14T08:26:28;3.42;;;2.40;;
62990;SDS011;49084;48.204;16.202;2023-06-14T08:28:54;2.90;;;2.53;;
62990;SDS011;49084;48.204;16.202;2023-06-14T08:31:21;5.28;;;2.63;;
62990;SDS011;49084;48.204;16.202;2023-06-14T08:33:47;6.38;;;2.38;;
62990;SDS011;49084;48.204;16.202;2023-06-14T08:36:12;2.53;;;2.00;;
62990;SDS011;49084;48.204;16.202;2023-06-14T08:38:39;4.70;;;2.28;;
62990;SDS011;49084;48.204;16.202;2023-06-14T08:41:04;6.28;;;2.20;;
62990;SDS011;49084;48.204;16.202;2023-06-14T08:43:31;3.47;;;2.33;;
62990;SDS011;49084;48.204;16.202;2023-06-14T08:45:58;4.47;;;1.90;;
62990;SDS011;49084;48.204;16.202;2023-06-14T08:48:27;5.20;;;1.90;;
62990;SDS011;49084;48.204;16.202;2023-06-14T08:50:56;4.43;;;1.85;;
62990;SDS011;49084;48.204;16.202;2023-06-14T08:53:32;3.63;;;1.80;;
62990;SDS011;49084;48.204;16.202;2023-06-14T08:56:02;7.35;;;2.17;;
62990;SDS011;49084;48.204;16.202;2023-06-14T08:58:30;3.13;;;2.45;;
62990;SDS011;49084;48.204;16.202;2023-06-14T09:03:25;3.47;;;2.28;;
62990;SDS011;49084;48.204;16.202;2023-06-14T09:05:54;7.88;;;3.38;;
62990;SDS011;49084;48.204;16.202;2023-06-14T09:08:21;3.30;;;2.42;;
62990;SDS011;49084;48.204;16.202;2023-06-14T09:10:48;6.50;;;2.75;;
62990;SDS011;49084;48.204;16.202;2023-06-14T09:13:14;3.78;;;2.10;;
62990;SDS011;49084;48.204;16.202;2023-06-14T09:15:40;5.85;;;2.63;;
62990;SDS011;49084;48.204;16.202;2023-06-14T09:18:05;3.65;;;2.22;;
62990;SDS011;49084;48.204;16.202;2023-06-14T09:20:32;2.55;;;2.28;;
62990;SDS011;49084;48.204;16.202;2023-06-14T09:22:58;4.18;;;2.33;;
62990;SDS011;49084;48.204;16.202;2023-06-14T09:25:25;2.95;;;2.22;;
62990;SDS011;49084;48.204;16.202;2023-06-14T09:27:52;5.78;;;1.80;;
62990;SDS011;49084;48.204;16.202;2023-06-14T09:30:19;5.00;;;2.00;;
62990;SDS011;49084;48.204;16.202;2023-06-14T09:32:46;3.83;;;2.10;;
62990;SDS011;49084;48.204;16.202;2023-06-14T09:35:11;6.65;;;2.08;;
62990;SDS011;49084;48.204;16.202;2023-06-14T09:37:37;4.82;;;1.90;;
62990;SDS011;49084;48.204;16.202;2023-06-14T09:40:04;4.30;;;2.05;;
62990;SDS011;49084;48.204;16.202;2023-06-14T09:42:31;1.90;;;1.80;;
62990;SDS011;49084;48.204;16.202;2023-06-14T09:45:00;2.70;;;2.30;;
62990;SDS011;49084;48.204;16.202;2023-06-14T09:47:27;4.78;;;2.20;;
62990;SDS011;49084;48.204;16.202;2023-06-14T09:49:53;9.65;;;2.33;;
62990;SDS011;49084;48.204;16.202;2023-06-14T09:52:20;4.07;;;2.08;;
62990;SDS011;49084;48.204;16.202;2023-06-14T09:54:48;6.50;;;2.60;;
62990;SDS011;49084;48.204;16.202;2023-06-14T09:57:15;7.57;;;2.58;;
62990;SDS011;49084;48.204;16.202;2023-06-14T09:59:43;3.65;;;2.38;;
62990;SDS011;49084;48.204;16.202;2023-06-14T10:02:11;4.70;;;2.63;;
62990;SDS011;49084;48.204;16.202;2023-06-14T10:05:03;5.10;;;2.75;;
62990;SDS011;49084;48.204;16.202;2023-06-14T10:07:32;5.50;;;2.28;;
62990;SDS011;49084;48.204;16.202;2023-06-14T10:10:03;5.18;;;2.15;;
62990;SDS011;49084;48.204;16.202;2023-06-14T10:12:30;5.30;;;2.45;;
62990;SDS011;49084;48.204;16.202;2023-06-14T10:14:56;1.95;;;1.85;;
62990;SDS011;49084;48.204;16.202;2023-06-14T10:17:27;4.72;;;2.33;;
62990;SDS011;49084;48.204;16.202;2023-06-14T10:22:58;3.45;;;2.10;;
62990;SDS011;49084;48.204;16.202;2023-06-14T10:25:33;7.07;;;2.60;;
62990;SDS011;49084;48.204;16.202;2023-06-14T10:33:29;5.93;;;2.28;;
62990;SDS011;49084;48.204;16.202;2023-06-14T10:36:08;5.03;;;2.40;;
62990;SDS011;49084;48.204;16.202;2023-06-14T10:41:01;3.40;;;2.20;;
62990;SDS011;49084;48.204;16.202;2023-06-14T10:43:28;2.88;;;2.20;;
62990;SDS011;49084;48.204;16.202;2023-06-14T10:48:42;6.07;;;2.65;;
62990;SDS011;49084;48.204;16.202;2023-06-14T10:51:16;3.35;;;2.35;;
62990;SDS011;49084;48.204;16.202;2023-06-14T10:53:49;4.07;;;2.20;;
62990;SDS011;49084;48.204;16.202;2023-06-14T10:56:26;2.13;;;1.90;;
62990;SDS011;49084;48.204;16.202;2023-06-14T10:58:54;2.25;;;1.70;;
62990;SDS011;49084;48.204;16.202;2023-06-14T11:01:26;2.83;;;2.40;;
62990;SDS011;49084;48.204;16.202;2023-06-14T11:04:14;4.07;;;2.35;;
62990;SDS011;49084;48.204;16.202;2023-06-14T11:06:49;3.72;;;2.40;;
62990;SDS011;49084;48.204;16.202;2023-06-14T11:12:27;3.38;;;1.90;;
62990;SDS011;49084;48.204;16.202;2023-06-14T11:14:54;3.35;;;1.85;;
62990;SDS011;49084;48.204;16.202;2023-06-14T11:17:19;4.25;;;1.92;;
62990;SDS011;49084;48.204;16.202;2023-06-14T11:19:45;4.43;;;1.92;;
62990;SDS011;49084;48.204;16.202;2023-06-14T11:22:11;2.05;;;1.70;;
62990;SDS011;49084;48.204;16.202;2023-06-14T11:24:37;4.03;;;2.20;;
62990;SDS011;49084;48.204;16.202;2023-06-14T11:27:03;3.88;;;2.15;;
62990;SDS011;49084;48.204;16.202;2023-06-14T11:29:29;2.20;;;2.00;;
62990;SDS011;49084;48.204;16.202;2023-06-14T11:31:55;4.38;;;1.85;;
62990;SDS011;49084;48.204;16.202;2023-06-14T11:34:21;5.15;;;2.30;;
62990;SDS011;49084;48.204;16.202;2023-06-14T11:36:46;3.70;;;2.00;;
62990;SDS011;49084;48.204;16.202;2023-06-14T11:39:12;7.95;;;2.35;;
62990;SDS011;49084;48.204;16.202;2023-06-14T11:44:06;7.85;;;2.15;;
62990;SDS011;49084;48.204;16.202;2023-06-14T11:46:33;5.78;;;1.95;;
62990;SDS011;49084;48.204;16.202;2023-06-14T11:48:59;3.58;;;2.08;;
62990;SDS011;49084;48.204;16.202;2023-06-14T11:53:54;3.72;;;2.20;;
62990;SDS011;49084;48.204;16.202;2023-06-14T11:56:20;4.10;;;2.10;;
62990;SDS011;49084;48.204;16.202;2023-06-14T11:58:46;6.13;;;2.22;;
62990;SDS011;49084;48.204;16.202;2023-06-14T12:01:16;4.70;;;1.73;;
62990;SDS011;49084;48.204;16.202;2023-06-14T12:03:49;15.50;;;3.60;;
62990;SDS011;49084;48.204;16.202;2023-06-14T12:06:15;8.02;;;2.58;;
62990;SDS011;49084;48.204;16.202;2023-06-14T12:08:43;3.22;;;2.00;;
62990;SDS011;49084;48.204;16.202;2023-06-14T12:11:11;5.22;;;2.15;;
62990;SDS011;49084;48.204;16.202;2023-06-14T12:13:41;4.60;;;2.10;;
62990;SDS011;49084;48.204;16.202;2023-06-14T12:16:08;5.70;;;2.45;;
62990;SDS011;49084;48.204;16.202;2023-06-14T12:18:35;6.68;;;2.22;;
62990;SDS011;49084;48.204;16.202;2023-06-14T12:21:08;9.55;;;3.28;;
62990;SDS011;49084;48.204;16.202;2023-06-14T12:23:38;2.55;;;2.13;;
62990;SDS011;49084;48.204;16.202;2023-06-14T12:26:14;2.65;;;2.40;;
62990;SDS011;49084;48.204;16.202;2023-06-14T12:28:41;3.78;;;2.20;;
62990;SDS011;49084;48.204;16.202;2023-06-14T12:31:08;5.45;;;1.92;;
62990;SDS011;49084;48.204;16.202;2023-06-14T12:33:34;3.95;;;1.80;;
62990;SDS011;49084;48.204;16.202;2023-06-14T12:36:02;5.95;;;2.00;;
62990;SDS011;49084;48.204;16.202;2023-06-14T12:38:29;3.63;;;2.15;;
62990;SDS011;49084;48.204;16.202;2023-06-14T12:40:54;8.77;;;2.38;;
62990;SDS011;49084;48.204;16.202;2023-06-14T12:43:20;5.20;;;2.22;;
62990;SDS011;49084;48.204;16.202;2023-06-14T12:45:45;9.35;;;2.83;;
62990;SDS011;49084;48.204;16.202;2023-06-14T12:48:11;2.75;;;1.73;;
62990;SDS011;49084;48.204;16.202;2023-06-14T12:50:36;3.45;;;1.60;;
62990;SDS011;49084;48.204;16.202;2023-06-14T12:53:02;4.70;;;1.60;;
62990;SDS011;49084;48.204;16.202;2023-06-14T12:55:28;5.03;;;2.08;;
62990;SDS011;49084;48.204;16.202;2023-06-14T12:57:53;2.80;;;1.55;;
62990;SDS011;49084;48.204;16.202;2023-06-14T13:00:19;4.63;;;2.13;;
62990;SDS011;49084;48.204;16.202;2023-06-14T13:02:46;3.72;;;2.00;;
62990;SDS011;49084;48.204;16.202;2023-06-14T13:05:12;4.80;;;2.10;;
62990;SDS011;49084;48.204;16.202;2023-06-14T13:07:37;3.55;;;2.30;;
62990;SDS011;49084;48.204;16.202;2023-06-14T13:10:03;5.45;;;2.17;;
62990;SDS011;49084;48.204;16.202;2023-06-14T13:12:30;3.58;;;2.03;;
62990;SDS011;49084;48.204;16.202;2023-06-14T13:14:56;7.93;;;2.33;;
62990;SDS011;49084;48.204;16.202;2023-06-14T13:17:22;5.18;;;2.47;;
62990;SDS011;49084;48.204;16.202;2023-06-14T13:19:47;2.33;;;2.13;;
62990;SDS011;49084;48.204;16.202;2023-06-14T13:22:13;4.65;;;2.45;;
62990;SDS011;49084;48.204;16.202;2023-06-14T13:24:38;3.72;;;2.15;;
62990;SDS011;49084;48.204;16.202;2023-06-14T13:27:04;7.75;;;2.50;;
62990;SDS011;49084;48.204;16.202;2023-06-14T13:29:30;6.82;;;2.53;;
62990;SDS011;49084;48.204;16.202;2023-06-14T13:31:57;3.58;;;1.95;;
62990;SDS011;49084;48.204;16.202;2023-06-14T13:34:23;6.72;;;2.45;;
62990;SDS011;49084;48.204;16.202;2023-06-14T13:36:49;3.53;;;2.20;;
62990;SDS011;49084;48.204;16.202;2023-06-14T13:39:15;3.75;;;2.42;;
62990;SDS011;49084;48.204;16.202;2023-06-14T13:41:41;3.25;;;2.00;;
62990;SDS011;49084;48.204;16.202;2023-06-14T13:44:06;2.95;;;2.13;;
62990;SDS011;49084;48.204;16.202;2023-06-14T13:46:33;4.47;;;1.98;;
62990;SDS011;49084;48.204;16.202;2023-06-14T13:48:58;5.32;;;2.10;;
62990;SDS011;49084;48.204;16.202;2023-06-14T13:51:26;5.25;;;2.05;;
62990;SDS011;49084;48.204;16.202;2023-06-14T13:53:52;5.68;;;2.10;;
62990;SDS011;49084;48.204;16.202;2023-06-14T13:56:18;5.07;;;2.33;;
62990;SDS011;49084;48.204;16.202;2023-06-14T13:58:44;6.60;;;1.95;;
62990;SDS011;49084;48.204;16.202;2023-06-14T14:01:10;2.88;;;2.15;;
62990;SDS011;49084;48.204;16.202;2023-06-14T14:03:36;3.50;;;2.22;;
62990;SDS011;49084;48.204;16.202;2023-06-14T14:06:02;5.45;;;2.47;;
62990;SDS011;49084;48.204;16.202;2023-06-14T14:08:29;4.53;;;2.08;;
62990;SDS011;49084;48.204;16.202;2023-06-14T14:10:54;3.13;;;2.10;;
62990;SDS011;49084;48.204;16.202;2023-06-14T14:13:21;4.22;;;1.98;;
62990;SDS011;49084;48.204;16.202;2023-06-14T14:15:47;4.88;;;2.42;;
62990;SDS011;49084;48.204;16.202;2023-06-14T14:18:14;4.70;;;2.67;;
62990;SDS011;49084;48.204;16.202;2023-06-14T14:20:40;4.43;;;2.30;;
62990;SDS011;49084;48.204;16.202;2023-06-14T14:23:06;4.78;;;2.22;;
62990;SDS011;49084;48.204;16.202;2023-06-14T14:25:31;8.52;;;2.08;;
62990;SDS011;49084;48.204;16.202;2023-06-14T14:27:57;4.05;;;2.33;;
62990;SDS011;49084;48.204;16.202;2023-06-14T14:30:22;3.42;;;1.80;;
62990;SDS011;49084;48.204;16.202;2023-06-14T14:32:49;3.88;;;2.30;;
62990;SDS011;49084;48.204;16.202;2023-06-14T14:35:16;1.90;;;1.80;;
62990;SDS011;49084;48.204;16.202;2023-06-14T14:37:42;7.53;;;2.15;;
62990;SDS011;49084;48.204;16.202;2023-06-14T14:40:09;3.47;;;2.20;;
62990;SDS011;49084;48.204;16.202;2023-06-14T14:42:36;2.20;;;2.00;;
62990;SDS011;49084;48.204;16.202;2023-06-14T14:45:02;6.22;;;2.25;;
62990;SDS011;49084;48.204;16.202;2023-06-14T14:47:28;2.95;;;2.03;;
62990;SDS011;49084;48.204;16.202;2023-06-14T14:49:53;6.05;;;2.00;;
62990;SDS011;49084;48.204;16.202;2023-06-14T14:52:19;8.15;;;2.53;;
62990;SDS011;49084;48.204;16.202;2023-06-14T14:54:45;5.88;;;2.38;;
62990;SDS011;49084;48.204;16.202;2023-06-14T14:57:10;4.03;;;2.22;;